Timeline UpdatesTrip UpdatesNews PostsPvt PostsTravel TipsAdmin PostsConv PostsFollowed PostsChat RequestsBlog PostsPNR Posts

Disclaimer
Search
 
 
Mon Sep 22, 2014 11:45:01 ISTHomeTrainsΣChainsAtlasPNRForumGalleryNewsFAQTripsMembersLoginFeedback
No Recent News for this Train
Other Trains in the News **new
Latest...
.
Wed Jul 25, 2012 (05:18PM)
⇐ Return Journey: Train# 57274

57273/Hubli - Tirupati Passenger

Time-Table HAS CHANGED.
Sep 03 (10:41PM)
Change Departure Station:
Change Arrival Station:
Post a Train Travel TipPost a Train Travel Tip **new
Post a Comment/Question/Picture/VideoPost a Comment/Question/Picture/Video
Pantry/Catering
✕ NO Pantry Car
✕ NO Catering
RSA - Rake Sharing
57257/58 TPTY-COA Passenger
Rake/Coach Composition
LOCO-SLR-GS-GS-GS-GS-GS-GS-GS-S2-S1-GS-GS-GS-GS-GS-SLR
Loco
UBL - GTL --> GTL WDM 2B GTL-TPTY --> WAP/WAM
News    PNR    Forum    Time-Table    Availability    Fare Chart    Map    Arr/Dep History    Trips    Gallery    ΣChains    X/O    Timeline    
Travel Time: 9h 5m    39 halts    Distance: 319 km    Avg Speed: 35 km/hr
Type: Passenger
Zone: SCR/South Central
Departs @ 12:40 (Avg 29m late)
Platform# ???
SMTWTFS
Guntakal Junction/GTL 
Arrives @ 21:45 (Avg 39m late)
Platform# 5
SMTWTFS
Tirupati Main/TPTY 

39 halts. 42 intermediate Stations between Guntakal Junction and Tirupati Main

Show ALL intermediate Stations  Show Old Time-Table

#CodeStation NameX/OArrivesAvgDepartsAvgHaltPFDay#KmSpeedElevZoneAddress
1UBLHubli Junction (5)  -06:00+021-257.851640mSWRHubli - 580020, Karnataka
2SVHESisvinhalli  06:27-06:28-1m--1-235.0121594mSWRState Highway 28, Karnataka
3NGRAnnigeri (2)  06:34+1006:35+111m--1-222.971634mSWRDist. Dharwad, Karnataka
4LKTHulkoti  06:44+1606:45+171m--1-212.326654mSWRNational Highway 63, Karnataka
5GDGGadag Junction (3)X  07:13+807:15+112m--1-200.042655mSWRGadag GDG jn pnts. UBL/BAY/SUR, Karnataka
6BNPBhanapurX  08:05 08:19+808:10 08:20+135 1m--1-155.183561mSWRNational Highway 63, Karnataka
7KBLKoppal (1)  08:23 08:29+1508:25 08:30+162 1m11-142.674526mSWRKoppal, Karnataka
8GINGinigera  08:38 08:39+1808:40+192 1m--1-131.546511mSWRGinigera, Karnataka
9MRBMunirabad (1)  08:53 08:54+2008:55+222 1m11-120.819470mSWRMunirabad, Karnataka
10HPTHospet Junction (3)  09:13 09:14+1609:15+182 1m11-114.750472mSWRHospet, Karnataka
11TNGLToranagallu (3)  09:54+2109:55+211m--1-82.538473mSWRToranagallu, Karnataka
12DAJDurojiX  10:00 10:04+2310:05+205 1m--1-76.827467mSWRBellary, Karnataka
13BAYBellary Junction (4)  11:05+311:10+65m31-50.047458mSWRBellary-583101, Karnataka
14HDDHaddinagundu  11:18+1311:19+131m--1-43.750433mSCRNational Highway 63, Karnataka
15HGIHagari  11:27+1411:28+141m--1-37.165413mSCRNational Highway 63, Karnataka
16VPVirapur  11:37+1511:38+161m--1-27.350427mSCRAnantapur, Andhra Pradesh
17TKBNTsakibanda  11:44-11:45-1m--1-22.357431mSCRRayalaseema Region, Andhra Pradesh
18BNLBevinahalu  11:49+1811:50+181m--1-18.558428mSCRRayalaseema Region, Andhra Pradesh
19BLLBantanahalX  11:57+2211:58+231m--1-11.826445mSCRRayalaseema Region, Andhra Pradesh
20GTLGuntakal Junction (6)»12:25+2112:40+2915m--10.028453mSCRGuntakal. Tel: 08552-227131/32, Andhra Pradesh
21TIMTimmanacherlaX  12:47+4712:48+491m--13.277434mSCRGuntakal, Andhra Pradesh
22NKDONakkanadoddi  12:55+5112:56+521m--112.258391mSCRRayalaseema Region, Andhra Pradesh
23PLUPatakottacheruvu  13:01+5313:02+531m--117.058381mSCRRayalaseema Region, Andhra Pradesh
24GYGooty Junction (2)X  13:14+5913:15+1:061m--128.565370mSCRNH 7 Anantapur District, Andhra Pradesh
25JKOJakkalacheruvuX  13:26+1:1413:27+1:151m--140.478334mSCRRayalaseema Region, Andhra Pradesh
26RLORayala Cheruvu (2)  13:36+1:1713:37+1:171m--152.138292mSCRRayalacheruvu, Andhra Pradesh
27VMLVemulapadu  13:46+1:1613:47+1:171m--157.954269mSCRSH 57, Andhra Pradesh
28JURJutturu  13:54+1:2013:55+1:201m--164.254260mSCRTadipatri, Andhra Pradesh
29KMQAKomali  14:02+1:2214:03+1:221m--170.534246mSCRPappuru Rd, Andhra Pradesh
30TUTadipatri (3)14:14+1:0314:15+1:031m--176.668243mSCRAnantapuram Dist, Andhra Pradesh
31CLPEChallavaripalli  14:21+1:2014:22+1:201m--183.552229mSCRYallanur Rd, Andhra Pradesh
32VRNVanganur  14:29+1:2814:30+1:281m--189.571222mSCRRayalaseema Region, Andhra Pradesh
33RLLRegadipalli  14:36+1:2714:37+1:271m--196.618223mSCRKadapa (YSR District), Andhra Pradesh
34KDPKondapuram (2)X  15:04+1:1215:05+1:241m--1104.761214mSCRKadapa (YSR District), Andhra Pradesh
35MUMMangapatnam  15:14+1:3215:15+1:321m--1113.862218mSCRKadapa (YSR District), Andhra Pradesh
36MOOMuddanuru (3)  15:29+1:2815:30+1:301m--1128.357194mSCRKadapa (YSR District), Andhra Pradesh
37KMHKalamalia  15:39+1:3915:40+1:391m--1136.965178mSCRKadapa (YSR District), Andhra Pradesh
38YAYerraguntla (2)X  15:47+1:3715:48+1:381m--1144.557171mSCRKadapa / Cuddapah (YSR District), Andhra Pradesh
39YGDYerragudipad  15:57+1:4415:58+1:451m--1153.038149mSCRKadapa (YSR District), Andhra Pradesh
40KKMKamalapuram (2)  16:09+1:4516:10+1:471m--1160.070141mSCRKadapa (YSR District), Andhra Pradesh
41GPYGangayapalle  16:16+1:5116:17+1:521m--1166.970137mSCRKadapa (YSR District), Andhra Pradesh
42KPUKrishnapuramX  16:25+1:5516:26+1:561m--1176.212133mSCRKadapa (YSR District), Andhra Pradesh
43HXKadapa (3)X  17:04+1:0417:05+1:131m11183.660146mSCRCuddapah, Andhra Pradesh
44KNLPKanamalo Palle  17:16+1:5017:17+1:501m--1194.648188mSCRKadapa (YSR District), Andhra Pradesh
45BKPTBhakarapet  17:24+1:5117:25+1:511m--1200.249145mSCRKadapa (YSR District), Andhra Pradesh
46VNMOntimitta (2)  17:32+1:5317:33+1:541m--1205.972134mSCRKadapa (YSR District), Andhra Pradesh
47MMPLMantapampalle (1)  17:42+1:5617:43+1:571m11216.828154mSCRKadapa (YSR District), Andhra Pradesh
48NRENandalurX  17:59+1:5218:00+1:541m--1224.136143mSCRRayalaseema Region, Andhra Pradesh
49HAQHastavaram  18:09+1:5618:10+1:561m--1229.638143mSCRKadapa (YSR District), Andhra Pradesh
50RJPRazampeta (2)  18:18+1:2318:19+1:231m--1234.761144mSCRKadapa (YSR District), Andhra Pradesh
51PMTPullampet  18:28+1:4818:29+1:481m--1243.846159mSCRKadapa (YSR District), Andhra Pradesh
52RPLReddipalle  18:34-18:35-1m--1247.663175mSCRDr. Y.S. Rajasekhar Reddy, Andhra Pradesh
53OBVPObulavaripalli (2)  18:42+1:4118:43+1:431m--1255.059191mSCRRayalaseema Region, Andhra Pradesh
54ANEAnantarajupet  18:49+1:5718:50+1:571m--1260.963197mSCRRayalaseema Region, Andhra Pradesh
55KOUKoduru (2)  18:57+1:5418:58+1:551m--1268.262215mSCRKadapa (YSR District), Andhra Pradesh
56SFSettigunta  19:07+2:0519:08+2:051m--1277.539214mSCRCoastal Andhra Region, Andhra Pradesh
57BLPEBalapalleX  19:19+2:0319:20+2:031m--1284.774246mSCRGangurajupodu, Andhra Pradesh
58MRMMamanduruX  19:28+2:0919:29+2:121m--1294.613177mSCRChittoor, Andhra Pradesh
59RURenigunta Junction (5)XO  20:15 20:35+1:2120:20 21:30+1:155 55m--1309.140113mSCRChittoor District, Andhra Pradesh
60TPTYTirupati Main (5)•  21:00 21:45+39-51319.0-150mSCRChittoor Distt, Andhra Pradesh
Scroll to Top
Scroll to Bottom